Terminal Aerodrome Forecast
Issued by NWS

Home | Current Version | Previous Version | Graphics & Text | Print | Product List | Glossary On
Versions: 1 2 3 4 5 6 7 8 9 10 11 12 13 14 15 16 17 18
000
FTUS43 KICT 232331
TAFCNU
TAF
KCNU 232331Z 2400/2424 18018G25KT P6SM SCT035
     FM240100 17012KT P6SM SCT040
     FM240400 17012KT P6SM SCT250 WS020/21045KT
     FM241200 19013KT P6SM VCSH BKN080
     FM241500 20017G24KT P6SM VCSH BKN080
     FM241800 20017G24KT P6SM SCT050=

USA.gov is the U.S. government's official web portal to all federal, state and local government web resources and services.